METAR AND TAF INFORMATION
METAR FOR LESA
ADDS - METARS form results

(1604 UTC 28 January 2023)
Data provider http://aviationweather.gov/metar/data/
 
METAR text: LESA 281600Z 07016KT 9999 SCT037 06/M03 Q1021
Conditions at: LESA (SALAMANCA (CIV/M, ES) observed 1600 UTC 28 January 2023
Temperature: 6.0°C (43°F)
Dewpoint: -3.0°C (27°F) [RH = 52%]
Pressure (altimeter): 30.15 inches Hg (1021.0 mb)
Winds: from the ENE (70 degrees) at 18 MPH (16 knots; 8.2 m/s)
Visibility: 6 or more miles (10+ km)
Ceiling: at least 12,000 feet AGL
Clouds: scattered clouds at 3700 feet AGL
Weather: no significant weather observed at this time

METAR text: LESA 281530Z 07015KT 030V090 9999 BKN035 06/M02 Q1021
Conditions at: LESA (SALAMANCA (CIV/M, ES) observed 1530 UTC 28 January 2023
Temperature: 6.0°C (43°F)
Dewpoint: -2.0°C (28°F) [RH = 56%]
Pressure (altimeter): 30.15 inches Hg (1021.0 mb)
Winds: from the ENE (70 degrees) at 17 MPH (15 knots; 7.7 m/s)
Visibility: 6 or more miles (10+ km)
Ceiling: 3500 feet AGL
Clouds: broken clouds at 3500 feet AGL
Weather: no significant weather observed at this time

Forecast for: LESA (SALAMANCA (CIV/M, ES)
Text: TAF LESA 281400Z 2815/2915 05012KT 9999 BKN030 TX07/2815Z TNM06/2907Z
Forecast period: 1500 UTC 28 January 2023 to 1500 UTC 29 January 2023
Forecast type: FROM: standard forecast or significant change
Winds: from the NE (50 degrees) at 14 MPH (12 knots; 6.2 m/s)
Visibility: 6 or more miles (10+ km)
Ceiling: 3000 feet AGL
Clouds: broken clouds at 3000 feet AGL
Weather: no significant weather forecast for this period
Text: PROB40
Forecast period: 1500 to 1700 UTC 28 January 2023
Forecast type: TEMPORARY: The following changes expected for less than half the time period
Winds: from the NE (50 degrees) at 17 MPH (15 knots; 7.7 m/s)
gusting to 29 MPH (25 knots; 12.9 m/s)
Visibility: missing
Ceiling: unknown
Clouds: missing
Weather: no significant weather forecast for this period

 AIRPORT MAP

 RUNWAY INFORMATION
Runway 03 Runway length 8202 ft Runway width 197 ft
Runway elevation 2595 ft Runway displaced threshold 0 ft Runway heading 28
Runway 21 Runway length 8202 ft Runway width 197 ft
Runway elevation 2586 ft Runway displaced threshold 0 ft Runway heading 208
Runway 08 Runway length 6594 ft Runway width 400 ft
Runway elevation 2587 ft Runway displaced threshold 0 ft Runway heading 74
Runway 26 Runway length 6594 ft Runway width 400 ft
Runway elevation 2588 ft Runway displaced threshold 0 ft Runway heading 254

 AIRPORT FREQUENCIES
Type APP Name APP Frequency 124.4 MHZ
Type GND Name GND Frequency 121.85 MHZ
Type TWR Name TWR Frequency 139.3 MHZ

 AIRPORT NEAR NAVIGATION AIDS
Type VOR-DME Name Salamanca Frequency 112200 KHZ
Type NDB Name Salamanca Frequency 399 KHZ
Type NDB Name Salamanca Frequency 423 KHZ
Type TACAN Name Salamanca Frequency 113300 KHZ



Powered by Virtual Airlines Manager [v2.6.2]